createdAt,value
2018-06-27T00:01:17.398Z,86.20
2018-06-27T00:03:48.025Z,86.50
2018-06-27T00:06:18.613Z,86.30
2018-06-27T00:08:49.237Z,86.80
2018-06-27T00:11:19.788Z,87.00
2018-06-27T00:13:50.438Z,87.00
2018-06-27T00:16:21.064Z,87.00
2018-06-27T00:18:51.673Z,87.10
2018-06-27T00:21:22.204Z,87.10
2018-06-27T00:23:52.913Z,86.70
2018-06-27T00:26:23.730Z,86.90
2018-06-27T00:28:54.289Z,86.70
2018-06-27T00:31:24.797Z,86.90
2018-06-27T00:33:55.987Z,87.00
2018-06-27T00:36:26.503Z,87.10
2018-06-27T00:38:57.134Z,87.10
2018-06-27T00:41:27.654Z,86.90
2018-06-27T00:43:58.235Z,87.20
2018-06-27T00:46:28.794Z,87.60
2018-06-27T00:48:59.395Z,87.60
2018-06-27T00:51:29.950Z,88.00
2018-06-27T00:54:05.678Z,87.80
2018-06-27T00:56:38.486Z,87.80
2018-06-27T00:59:09.434Z,87.30
2018-06-27T01:01:40.217Z,87.40
2018-06-27T01:04:10.835Z,87.90
2018-06-27T01:06:41.384Z,88.10
2018-06-27T01:09:12.096Z,88.30
2018-06-27T01:11:42.684Z,87.90
2018-06-27T01:14:13.247Z,87.90
2018-06-27T01:16:43.809Z,87.80
2018-06-27T01:19:14.359Z,88.10
2018-06-27T01:21:45.018Z,88.80
2018-06-27T01:24:15.725Z,89.10
2018-06-27T01:26:46.257Z,89.30
2018-06-27T01:29:16.836Z,89.10
2018-06-27T01:31:47.422Z,88.90
2018-06-27T01:34:18.361Z,89.10
2018-06-27T01:36:48.884Z,89.60
2018-06-27T01:39:19.402Z,89.40
2018-06-27T01:41:49.950Z,88.70
2018-06-27T01:44:20.518Z,88.80
2018-06-27T01:46:51.072Z,88.90
2018-06-27T01:49:21.728Z,88.70
2018-06-27T01:51:52.260Z,88.90
2018-06-27T01:54:22.821Z,89.30
2018-06-27T01:56:54.284Z,89.40
2018-06-27T01:59:24.878Z,88.90
2018-06-27T02:01:55.431Z,89.10
2018-06-27T02:04:26.057Z,89.30
2018-06-27T02:06:56.614Z,89.40
2018-06-27T02:09:27.521Z,89.60
2018-06-27T02:11:58.084Z,89.80
2018-06-27T02:14:28.651Z,89.80
2018-06-27T02:16:59.189Z,89.40
2018-06-27T02:19:29.868Z,89.30
2018-06-27T02:22:00.426Z,89.30
2018-06-27T02:24:30.997Z,89.60
2018-06-27T02:27:01.518Z,89.70
2018-06-27T02:29:32.093Z,90.10
2018-06-27T02:32:02.638Z,90.20
2018-06-27T02:34:33.757Z,90.10
2018-06-27T02:37:04.292Z,90.40
2018-06-27T02:39:34.856Z,90.20
2018-06-27T02:42:05.400Z,90.20
2018-06-27T02:44:36.067Z,90.10
2018-06-27T02:47:06.615Z,90.00
2018-06-27T02:49:37.245Z,90.00
2018-06-27T02:52:07.788Z,89.80
2018-06-27T02:54:38.408Z,90.00
2018-06-27T02:57:08.979Z,90.00
2018-06-27T02:59:39.561Z,90.00
2018-06-27T03:02:10.134Z,90.10
2018-06-27T03:04:40.782Z,90.60
2018-06-27T03:07:11.330Z,90.30
2018-06-27T03:09:41.882Z,90.20
2018-06-27T03:12:12.445Z,90.30
2018-06-27T03:14:43.014Z,90.10
2018-06-27T03:17:13.666Z,90.20
2018-06-27T03:19:44.359Z,90.20
2018-06-27T03:22:15.008Z,90.30
2018-06-27T03:24:45.697Z,90.20
2018-06-27T03:27:16.221Z,90.10
2018-06-27T03:29:46.905Z,90.20
2018-06-27T03:32:17.490Z,90.40
2018-06-27T03:34:48.425Z,90.00
2018-06-27T03:37:18.981Z,90.00
2018-06-27T03:39:49.979Z,90.00
2018-06-27T03:42:20.661Z,89.90
2018-06-27T03:44:51.218Z,90.10
2018-06-27T03:47:21.724Z,90.10
2018-06-27T03:49:52.330Z,90.10
2018-06-27T03:52:22.856Z,90.20
2018-06-27T03:54:53.494Z,90.30
2018-06-27T03:57:24.121Z,90.40
2018-06-27T03:59:54.710Z,90.30
2018-06-27T04:02:25.257Z,90.20
2018-06-27T04:04:55.886Z,90.30
2018-06-27T04:07:26.440Z,90.30
2018-06-27T04:09:57.052Z,90.30
2018-06-27T04:12:27.568Z,90.30
2018-06-27T04:14:58.269Z,90.30
2018-06-27T04:17:28.908Z,90.00
2018-06-27T04:19:59.524Z,90.00
2018-06-27T04:22:36.409Z,89.70
2018-06-27T04:25:07.072Z,89.90
2018-06-27T04:27:37.672Z,90.00
2018-06-27T04:30:08.402Z,90.20
2018-06-27T04:32:38.968Z,90.10
2018-06-27T04:35:09.953Z,90.20
2018-06-27T04:37:40.809Z,89.90
2018-06-27T04:40:11.364Z,89.70
2018-06-27T04:42:41.946Z,89.10
2018-06-27T04:45:12.636Z,88.70
2018-06-27T04:47:43.165Z,88.20
2018-06-27T04:50:13.776Z,87.50
2018-06-27T04:52:44.315Z,87.30
2018-06-27T04:55:14.947Z,87.10
2018-06-27T04:57:45.489Z,86.50
2018-06-27T05:00:16.088Z,86.10
2018-06-27T05:02:46.663Z,85.90
2018-06-27T05:05:17.246Z,86.10
2018-06-27T05:07:47.783Z,86.00
2018-06-27T05:10:18.438Z,86.90
2018-06-27T05:12:49.058Z,86.50
2018-06-27T05:15:19.750Z,86.30
2018-06-27T05:17:50.269Z,85.60
2018-06-27T05:20:20.822Z,84.50
2018-06-27T05:22:51.386Z,84.40
2018-06-27T05:25:21.946Z,84.80
2018-06-27T05:27:52.474Z,85.50
2018-06-27T05:30:23.034Z,85.70
2018-06-27T05:32:53.611Z,85.30
2018-06-27T05:35:24.706Z,85.40
2018-06-27T05:37:55.447Z,85.20
2018-06-27T05:40:26.029Z,85.00
2018-06-27T05:42:56.668Z,84.00
2018-06-27T05:45:27.255Z,83.90
2018-06-27T05:47:57.817Z,83.50
2018-06-27T05:50:28.592Z,83.30
2018-06-27T05:52:59.141Z,83.30
2018-06-27T05:55:29.725Z,82.50
2018-06-27T06:00:30.438Z,81.90
2018-06-27T06:03:00.996Z,81.90
2018-06-27T06:05:31.623Z,82.20
2018-06-27T06:08:02.156Z,82.20
2018-06-27T06:10:32.773Z,81.40
2018-06-27T06:13:03.465Z,80.30
2018-06-27T06:15:34.080Z,80.10
2018-06-27T06:18:04.645Z,80.20
2018-06-27T06:20:35.416Z,79.70
2018-06-27T06:23:05.997Z,79.00
2018-06-27T06:25:36.643Z,79.40
2018-06-27T06:28:07.189Z,78.50
2018-06-27T06:30:37.781Z,77.70
2018-06-27T06:33:08.474Z,76.50
2018-06-27T06:35:39.313Z,76.20
2018-06-27T06:38:09.845Z,76.20
2018-06-27T06:43:10.691Z,75.60
2018-06-27T06:45:41.261Z,75.30
2018-06-27T06:48:11.832Z,75.30
2018-06-27T06:50:42.392Z,75.90
2018-06-27T06:53:12.947Z,75.30
2018-06-27T06:55:43.501Z,73.80
2018-06-27T06:58:14.158Z,72.40
2018-06-27T07:00:44.832Z,71.90
2018-06-27T07:03:15.362Z,72.30
2018-06-27T07:05:45.931Z,72.10
2018-06-27T07:08:16.485Z,71.90
2018-06-27T07:10:47.053Z,71.70
2018-06-27T07:13:17.950Z,72.80
2018-06-27T07:15:48.481Z,72.30
2018-06-27T07:18:19.021Z,71.90
2018-06-27T07:20:49.650Z,70.20
2018-06-27T07:23:20.215Z,70.00
2018-06-27T07:25:50.846Z,69.80
2018-06-27T07:28:21.409Z,69.60
2018-06-27T07:30:52.066Z,69.00
2018-06-27T07:33:22.600Z,67.80
2018-06-27T07:35:53.633Z,67.50
2018-06-27T07:38:24.189Z,67.20
2018-06-27T07:40:54.805Z,67.20
2018-06-27T07:43:25.401Z,67.00
2018-06-27T07:45:56.011Z,65.90
2018-06-27T07:48:26.558Z,64.40
2018-06-27T07:50:57.155Z,63.50
2018-06-27T07:53:27.720Z,63.70
2018-06-27T07:55:58.261Z,62.30
2018-06-27T07:58:29.010Z,61.20
2018-06-27T08:00:59.648Z,60.60
2018-06-27T08:03:30.220Z,59.90
2018-06-27T08:06:01.014Z,60.00
2018-06-27T08:08:31.582Z,59.80
2018-06-27T08:11:02.154Z,59.40
2018-06-27T08:13:32.681Z,60.00
2018-06-27T08:16:03.312Z,61.10
2018-06-27T08:18:43.247Z,61.60
2018-06-27T08:21:13.870Z,61.10
2018-06-27T08:23:44.449Z,60.00
2018-06-27T08:26:15.074Z,58.80
2018-06-27T08:28:45.592Z,57.60
2018-06-27T08:31:16.178Z,58.10
2018-06-27T08:33:46.742Z,60.00
2018-06-27T08:36:17.529Z,58.90
2018-06-27T08:38:48.103Z,57.80
2018-06-27T08:41:18.760Z,57.10
2018-06-27T08:43:49.528Z,55.20
2018-06-27T08:46:20.094Z,55.40
2018-06-27T08:48:50.774Z,56.70
2018-06-27T08:51:21.363Z,54.70
2018-06-27T08:53:51.944Z,55.10
2018-06-27T08:56:22.514Z,54.80
2018-06-27T08:58:53.320Z,55.30
2018-06-27T09:01:23.943Z,52.00
2018-06-27T09:03:54.509Z,52.80
2018-06-27T09:06:25.141Z,51.00
2018-06-27T09:08:55.729Z,51.00
2018-06-27T09:11:26.332Z,51.40
2018-06-27T09:13:56.817Z,50.50
2018-06-27T09:16:27.413Z,50.80
2018-06-27T09:18:57.946Z,49.30
2018-06-27T09:21:28.517Z,49.50
2018-06-27T09:23:59.089Z,50.30
2018-06-27T09:26:29.707Z,49.70
2018-06-27T09:29:00.321Z,50.20
2018-06-27T09:31:30.928Z,49.60
2018-06-27T09:34:01.555Z,49.60
2018-06-27T09:36:32.499Z,51.40
2018-06-27T09:39:03.155Z,52.20
2018-06-27T09:41:33.744Z,52.00
2018-06-27T09:44:04.613Z,52.20
2018-06-27T09:46:36.030Z,52.00
2018-06-27T09:49:06.649Z,50.40
2018-06-27T09:51:37.240Z,48.90
2018-06-27T09:54:07.828Z,49.40
2018-06-27T09:56:38.478Z,50.10
2018-06-27T09:59:09.142Z,49.80
2018-06-27T10:01:39.775Z,49.10
2018-06-27T10:04:10.342Z,48.20
2018-06-27T10:06:40.914Z,49.60
2018-06-27T10:09:11.791Z,49.60
2018-06-27T10:11:42.418Z,49.80
2018-06-27T10:14:12.991Z,50.20
2018-06-27T10:16:43.743Z,50.40
2018-06-27T10:19:14.335Z,50.40
2018-06-27T10:21:44.893Z,51.00
2018-06-27T10:24:15.482Z,51.20
2018-06-27T10:26:46.120Z,50.40
2018-06-27T10:29:16.692Z,51.10
2018-06-27T10:31:47.274Z,51.60
2018-06-27T10:34:17.871Z,52.20
2018-06-27T10:36:48.850Z,52.40
2018-06-27T10:39:19.387Z,53.30
2018-06-27T10:41:50.018Z,54.90
2018-06-27T10:44:20.533Z,55.70
2018-06-27T10:46:51.144Z,56.70
2018-06-27T10:49:21.652Z,57.80
2018-06-27T10:51:52.236Z,58.60
2018-06-27T10:54:22.793Z,57.70
2018-06-27T10:56:53.386Z,58.40
2018-06-27T10:59:23.935Z,58.90
2018-06-27T11:01:54.472Z,59.10
2018-06-27T11:04:25.003Z,59.10
2018-06-27T11:06:55.578Z,58.10
2018-06-27T11:09:26.143Z,57.90
2018-06-27T11:11:56.725Z,57.80
2018-06-27T11:14:27.410Z,58.30
2018-06-27T11:16:58.239Z,58.40
2018-06-27T11:19:28.793Z,58.80
2018-06-27T11:21:59.727Z,58.80
2018-06-27T11:24:30.323Z,59.10
2018-06-27T11:27:00.947Z,59.50
2018-06-27T11:29:31.561Z,59.40
2018-06-27T11:32:02.176Z,59.40
2018-06-27T11:34:32.872Z,59.90
2018-06-27T11:37:03.767Z,60.50
2018-06-27T11:39:34.321Z,61.60
2018-06-27T11:42:05.006Z,61.90
2018-06-27T11:44:35.510Z,61.80
2018-06-27T11:47:06.178Z,62.60
2018-06-27T11:49:36.729Z,62.80
2018-06-27T11:52:07.313Z,62.80
2018-06-27T11:54:37.890Z,63.10
2018-06-27T11:57:08.689Z,63.60
2018-06-27T11:59:39.252Z,62.50
2018-06-27T12:02:09.874Z,62.30
2018-06-27T12:04:40.418Z,63.00
2018-06-27T12:07:11.062Z,63.20
2018-06-27T12:09:41.640Z,63.90
2018-06-27T12:12:12.261Z,64.90
2018-06-27T12:14:42.809Z,65.20
2018-06-27T12:17:13.448Z,65.00
2018-06-27T12:19:44.087Z,65.20
2018-06-27T12:22:14.750Z,64.80
2018-06-27T12:24:45.314Z,64.90
2018-06-27T12:27:15.961Z,65.50
2018-06-27T12:29:46.577Z,65.70
2018-06-27T12:32:17.209Z,64.70
2018-06-27T12:34:47.807Z,65.00
2018-06-27T12:37:18.441Z,64.70
2018-06-27T12:39:49.301Z,64.80
2018-06-27T12:42:20.124Z,66.00
2018-06-27T12:44:50.677Z,69.30
2018-06-27T12:47:21.263Z,70.30
2018-06-27T12:49:51.865Z,68.40
2018-06-27T12:52:22.459Z,68.70
2018-06-27T12:54:57.032Z,69.50
2018-06-27T12:57:27.712Z,70.20
2018-06-27T12:59:58.815Z,70.20
2018-06-27T13:02:29.747Z,69.30
2018-06-27T13:05:00.806Z,68.70
2018-06-27T13:07:31.378Z,67.70
2018-06-27T13:10:02.053Z,67.10
2018-06-27T13:12:32.662Z,67.00
2018-06-27T13:15:03.334Z,66.00
2018-06-27T13:17:34.002Z,65.90
2018-06-27T13:20:05.332Z,66.10
2018-06-27T13:22:39.037Z,66.80
2018-06-27T13:25:09.701Z,68.50
2018-06-27T13:27:40.343Z,68.70
2018-06-27T13:30:10.982Z,67.70
2018-06-27T13:32:41.596Z,68.30
2018-06-27T13:35:12.666Z,68.80
2018-06-27T13:37:43.263Z,69.40
2018-06-27T13:40:13.918Z,68.50
2018-06-27T13:42:44.596Z,67.40
2018-06-27T13:45:15.215Z,67.90
2018-06-27T13:47:46.040Z,68.60
2018-06-27T13:50:16.646Z,68.40
2018-06-27T13:52:47.308Z,68.80
2018-06-27T13:55:18.191Z,68.70
2018-06-27T13:57:48.839Z,68.10
2018-06-27T14:00:19.393Z,66.80
2018-06-27T14:02:50.063Z,67.80
2018-06-27T14:05:20.793Z,67.20
2018-06-27T14:07:51.397Z,66.80
2018-06-27T14:10:22.047Z,66.80
2018-06-27T14:12:52.762Z,67.50
2018-06-27T14:15:24.458Z,67.20
2018-06-27T14:17:55.091Z,67.80
2018-06-27T14:20:25.758Z,67.70
2018-06-27T14:22:56.328Z,67.20
2018-06-27T14:25:26.933Z,68.70
2018-06-27T14:27:57.523Z,70.40
2018-06-27T14:30:28.049Z,70.20
2018-06-27T14:32:58.793Z,69.40
2018-06-27T14:35:29.410Z,68.60
2018-06-27T14:38:00.293Z,68.50
2018-06-27T14:40:30.876Z,70.60
2018-06-27T14:43:01.591Z,70.20
2018-06-27T14:45:32.345Z,70.50
2018-06-27T14:48:02.958Z,71.10
2018-06-27T14:50:33.541Z,70.60
2018-06-27T14:53:04.307Z,71.30
2018-06-27T14:55:34.877Z,72.50
2018-06-27T14:58:05.537Z,70.00
2018-06-27T15:00:36.089Z,72.40
2018-06-27T15:03:07.176Z,72.30
2018-06-27T15:05:37.746Z,71.50
2018-06-27T15:08:08.676Z,72.90
2018-06-27T15:10:40.042Z,73.80
2018-06-27T15:13:10.724Z,71.90
2018-06-27T15:15:41.339Z,72.10
2018-06-27T15:18:11.968Z,72.80
2018-06-27T15:20:42.662Z,72.80
2018-06-27T15:23:13.166Z,71.50
2018-06-27T15:25:43.762Z,70.10
2018-06-27T15:28:14.379Z,70.10
2018-06-27T15:30:45.070Z,70.30
2018-06-27T15:33:15.664Z,70.40
2018-06-27T15:35:46.577Z,70.60
2018-06-27T15:40:47.233Z,70.30
2018-06-27T15:43:17.846Z,69.70
2018-06-27T15:45:48.495Z,70.00
2018-06-27T15:48:19.234Z,69.30
2018-06-27T15:50:49.983Z,69.00
2018-06-27T15:53:20.718Z,68.90
2018-06-27T15:55:52.056Z,69.40
2018-06-27T15:58:22.655Z,71.50
2018-06-27T16:00:53.493Z,70.90
2018-06-27T16:03:24.226Z,70.80
2018-06-27T16:05:54.795Z,73.10
2018-06-27T16:08:25.431Z,72.50
2018-06-27T16:10:56.154Z,72.10
2018-06-27T16:13:26.896Z,70.10
2018-06-27T16:15:57.464Z,71.70
2018-06-27T16:18:28.476Z,72.30
2018-06-27T16:20:59.077Z,72.90
2018-06-27T16:23:31.189Z,73.30
2018-06-27T16:26:01.847Z,74.10
2018-06-27T16:28:33.429Z,75.40
2018-06-27T16:31:04.807Z,74.40
2018-06-27T16:33:35.467Z,75.40
2018-06-27T16:36:06.398Z,75.20
2018-06-27T16:38:37.093Z,73.60
2018-06-27T16:41:07.694Z,74.00
2018-06-27T16:43:38.370Z,73.80
2018-06-27T16:46:09.179Z,73.90
2018-06-27T16:48:39.764Z,74.50
2018-06-27T16:51:10.870Z,73.40
2018-06-27T16:53:41.494Z,72.90
2018-06-27T16:56:12.056Z,73.40
2018-06-27T16:58:42.799Z,74.40
2018-06-27T17:01:13.672Z,74.60
2018-06-27T17:03:44.087Z,74.50
2018-06-27T17:06:14.863Z,73.30
2018-06-27T17:08:45.375Z,74.10
2018-06-27T17:11:16.122Z,74.40
2018-06-27T17:13:46.767Z,75.00
2018-06-27T17:16:17.399Z,74.50
2018-06-27T17:18:48.269Z,74.50
2018-06-27T17:21:18.860Z,75.00
2018-06-27T17:23:49.488Z,75.20
2018-06-27T17:26:20.157Z,75.30
2018-06-27T17:30:53.089Z,76.00
2018-06-27T17:33:23.978Z,74.80
2018-06-27T17:35:54.527Z,75.10
2018-06-27T17:38:25.164Z,75.70
2018-06-27T17:40:55.759Z,76.20
2018-06-27T17:43:26.340Z,75.00
2018-06-27T17:45:56.891Z,75.10
2018-06-27T17:48:27.553Z,75.50
2018-06-27T17:50:58.214Z,75.50
2018-06-27T17:53:29.560Z,74.90
2018-06-27T17:56:00.215Z,76.00
2018-06-27T17:58:31.145Z,75.90
2018-06-27T18:01:01.858Z,76.00
2018-06-27T18:03:32.570Z,76.10
2018-06-27T18:06:03.187Z,76.70
2018-06-27T18:08:33.766Z,76.90
2018-06-27T18:11:04.401Z,77.80
2018-06-27T18:13:35.790Z,77.60
2018-06-27T18:16:06.502Z,77.60
2018-06-27T18:18:37.120Z,78.20
2018-06-27T18:21:08.448Z,78.50
2018-06-27T18:23:39.373Z,78.00
2018-06-27T18:26:10.096Z,78.10
2018-06-27T18:28:40.809Z,79.10
2018-06-27T18:31:11.519Z,78.80
2018-06-27T18:33:42.182Z,79.10
2018-06-27T18:36:12.753Z,80.00
2018-06-27T18:38:43.590Z,80.30
2018-06-27T18:41:14.226Z,80.30
2018-06-27T18:43:44.851Z,80.40
2018-06-27T18:46:15.457Z,80.30
2018-06-27T18:48:46.103Z,80.00
2018-06-27T18:51:16.734Z,80.50
2018-06-27T18:53:47.358Z,80.50
2018-06-27T18:56:18.000Z,80.50
2018-06-27T18:58:48.721Z,80.80
2018-06-27T19:01:19.407Z,80.80
2018-06-27T19:03:50.013Z,81.20
2018-06-27T19:06:21.418Z,80.50
2018-06-27T19:08:52.093Z,80.80
2018-06-27T19:11:22.672Z,81.00
2018-06-27T19:13:53.276Z,81.50
2018-06-27T19:16:23.911Z,83.10
2018-06-27T19:18:54.641Z,84.00
2018-06-27T19:21:25.583Z,84.30
2018-06-27T19:23:56.334Z,85.20
2018-06-27T19:26:26.909Z,85.00
2018-06-27T19:28:57.558Z,85.10
2018-06-27T19:31:28.205Z,85.50
2018-06-27T19:44:31.438Z,85.50
2018-06-27T19:47:02.223Z,86.30
2018-06-27T19:49:32.809Z,86.50
2018-06-27T19:52:03.466Z,86.80
2018-06-27T19:54:34.072Z,87.60
2018-06-27T19:57:04.758Z,87.70
2018-06-27T19:59:35.337Z,88.30
2018-06-27T20:02:06.166Z,89.80
2018-06-27T20:04:36.772Z,89.40
2018-06-27T20:07:07.518Z,89.80
2018-06-27T20:09:38.073Z,90.00
2018-06-27T20:12:08.745Z,90.00
2018-06-27T20:14:39.436Z,90.50
2018-06-27T20:17:10.158Z,90.50
2018-06-27T20:19:40.825Z,90.70
2018-06-27T20:22:12.037Z,90.90
2018-06-27T20:24:42.511Z,91.30
2018-06-27T20:27:13.161Z,91.40
2018-06-27T20:29:43.759Z,91.70
2018-06-27T20:32:14.431Z,91.80
2018-06-27T20:34:45.121Z,91.90
2018-06-27T20:37:15.823Z,92.50
2018-06-27T20:39:46.502Z,92.30
2018-06-27T20:42:17.343Z,92.40
2018-06-27T20:44:47.951Z,93.10
2018-06-27T20:47:18.839Z,92.90
2018-06-27T20:49:49.435Z,92.60
2018-06-27T20:52:20.085Z,92.80
2018-06-27T20:54:50.698Z,92.90
2018-06-27T20:57:21.382Z,93.10
2018-06-27T20:59:52.044Z,93.60
2018-06-27T21:02:22.714Z,93.30
2018-06-27T21:07:23.479Z,93.50
2018-06-27T21:12:24.366Z,93.80
2018-06-27T21:14:54.992Z,94.00
2018-06-27T21:17:26.023Z,94.10
2018-06-27T21:19:57.296Z,94.20
2018-06-27T21:22:28.769Z,94.20
2018-06-27T21:24:59.414Z,94.20
2018-06-27T21:27:29.993Z,94.30
2018-06-27T21:30:00.594Z,94.10
2018-06-27T21:32:31.226Z,94.10
2018-06-27T21:35:01.827Z,94.20
2018-06-27T21:37:32.417Z,94.30
2018-06-27T21:40:03.413Z,94.40
2018-06-27T21:42:34.041Z,94.40
2018-06-27T21:45:04.749Z,94.40
2018-06-27T21:47:35.413Z,94.60
2018-06-27T21:50:06.318Z,94.70
2018-06-27T21:52:36.915Z,94.80
2018-06-27T21:55:07.967Z,94.80
2018-06-27T21:57:38.674Z,95.00
2018-06-27T22:00:11.111Z,95.00
2018-06-27T22:02:41.854Z,94.90
2018-06-27T22:05:12.576Z,95.00
2018-06-27T22:07:43.203Z,95.10
2018-06-27T22:10:13.950Z,94.90
2018-06-27T22:12:44.583Z,95.20
2018-06-27T22:15:15.174Z,95.30
2018-06-27T22:17:45.982Z,95.30
2018-06-27T22:20:16.598Z,95.30
2018-06-27T22:22:47.566Z,95.30
2018-06-27T22:25:18.110Z,95.00
2018-06-27T22:27:48.802Z,94.80
2018-06-27T22:30:19.437Z,94.60
2018-06-27T22:32:50.161Z,94.60
2018-06-27T22:35:20.730Z,94.90
2018-06-27T22:37:51.397Z,94.60
2018-06-27T22:40:21.994Z,94.90
2018-06-27T22:42:52.609Z,95.20
2018-06-27T22:45:23.262Z,95.10
2018-06-27T22:47:53.929Z,95.20
2018-06-27T22:50:24.544Z,95.20
2018-06-27T22:52:55.178Z,95.30
2018-06-27T22:55:25.805Z,95.40
2018-06-27T22:57:56.577Z,95.30
2018-06-27T23:00:27.383Z,95.30
2018-06-27T23:02:58.083Z,95.30
2018-06-27T23:05:28.760Z,95.40
2018-06-27T23:08:00.092Z,95.30
2018-06-27T23:10:30.678Z,95.30
2018-06-27T23:13:01.710Z,95.30
2018-06-27T23:15:32.321Z,95.40
2018-06-27T23:18:03.021Z,95.50
2018-06-27T23:20:33.670Z,95.40
2018-06-27T23:23:04.720Z,95.50
2018-06-27T23:25:35.329Z,95.50
2018-06-27T23:28:05.968Z,95.50
2018-06-27T23:30:36.577Z,95.60
2018-06-27T23:33:07.328Z,95.80
2018-06-27T23:35:37.972Z,95.70
2018-06-27T23:38:08.674Z,95.60
2018-06-27T23:40:39.468Z,95.70
2018-06-27T23:43:10.185Z,95.70
2018-06-27T23:45:40.781Z,95.80
2018-06-27T23:48:11.631Z,95.70
2018-06-27T23:50:42.253Z,95.70
2018-06-27T23:53:12.936Z,95.40
2018-06-27T23:55:43.532Z,95.50
2018-06-27T23:58:14.257Z,95.60
